Time;durP1;ratioP1;P1;durP2;ratioP2;P2;SDS_P1;SDS_P2;PMS_P1;PMS_P2;Temp;Humidity;BMP_temperature;BMP_pressure;BME280_temperature;BME280_humidity;BME280_pressure;Samples;Min_cycle;Max_cycle;Signal;HPM_P1;HPM_P2
2022/06/30 00:01:23;;;;;;;4.60;1.90;;;;;;;16.43;68.89;100668.80;107995;1276;62292;-88
2022/06/30 00:03:50;;;;;;;4.50;1.80;;;;;;;16.42;69.00;100669.12;107987;1276;61546;-89
2022/06/30 00:06:18;;;;;;;2.70;1.60;;;;;;;16.39;69.13;100669.83;108198;1276;75120;-89
2022/06/30 00:08:45;;;;;;;4.60;1.60;;;;;;;16.36;69.13;100664.49;107960;1277;72187;-89
2022/06/30 00:11:19;;;;;;;3.30;2.00;;;;;;;16.34;69.28;100665.20;107922;1277;74087;-89
2022/06/30 00:13:46;;;;;;;2.60;1.40;;;;;;;16.29;69.39;100663.70;107940;1276;61176;-89
2022/06/30 00:16:17;;;;;;;3.80;2.10;;;;;;;16.28;69.45;100669.23;107966;1276;61768;-88
2022/06/30 00:18:45;;;;;;;2.60;1.70;;;;;;;16.25;69.67;100668.65;107990;1276;74093;-88
2022/06/30 00:21:20;;;;;;;3.30;1.50;;;;;;;16.23;69.68;100667.48;107943;1277;72633;-89
2022/06/30 00:23:47;;;;;;;2.60;1.50;;;;;;;16.21;69.98;100667.61;108132;1276;73135;-89
2022/06/30 00:26:23;;;;;;;5.70;2.20;;;;;;;16.18;69.95;100666.27;108064;1276;62312;-88
2022/06/30 00:28:50;;;;;;;3.60;2.30;;;;;;;16.16;70.07;100665.98;108053;1276;60004;-89
2022/06/30 00:31:19;;;;;;;3.80;1.60;;;;;;;16.12;70.19;100656.36;108042;1276;75978;-88
2022/06/30 00:33:47;;;;;;;4.40;1.60;;;;;;;16.09;70.44;100649.55;108168;1275;72078;-88
2022/06/30 00:36:16;;;;;;;5.90;1.70;;;;;;;16.03;70.53;100640.63;108019;1276;72147;-88
2022/06/30 00:38:44;;;;;;;4.90;1.80;;;;;;;16.02;70.62;100640.15;108042;1276;63633;-88
2022/06/30 00:41:20;;;;;;;3.50;1.50;;;;;;;16.00;70.71;100639.05;108233;1276;59782;-88
2022/06/30 00:43:48;;;;;;;4.00;1.80;;;;;;;15.97;70.97;100633.55;108085;1276;75878;-88
2022/06/30 00:46:18;;;;;;;3.10;1.80;;;;;;;15.94;71.17;100636.06;108064;1276;71018;-88
2022/06/30 00:48:46;;;;;;;2.60;1.70;;;;;;;15.90;71.38;100631.09;108140;1276;73380;-88
2022/06/30 00:51:17;;;;;;;2.50;1.50;;;;;;;15.87;71.46;100628.31;108322;1276;61614;-89
2022/06/30 00:53:45;;;;;;;3.30;1.60;;;;;;;15.84;71.54;100630.95;108323;1276;61784;-88
2022/06/30 00:56:18;;;;;;;4.80;1.50;;;;;;;15.82;71.76;100631.41;108354;1276;75474;-88
2022/06/30 00:58:48;;;;;;;2.40;1.40;;;;;;;15.79;72.21;100635.20;108383;1277;73057;-88
2022/06/30 01:01:20;;;;;;;3.10;1.30;;;;;;;15.77;72.33;100629.17;108515;1276;73551;-88
2022/06/30 01:03:47;;;;;;;8.40;1.50;;;;;;;15.72;72.65;100625.22;108465;1276;65103;-88
2022/06/30 01:06:28;;;;;;;3.20;1.70;;;;;;;15.64;72.44;100614.44;108377;1277;59880;-88
2022/06/30 01:08:57;;;;;;;4.90;1.90;;;;;;;15.62;72.87;100618.31;108222;1277;73526;-88
2022/06/30 01:14:11;;;;;;;2.20;1.30;;;;;;;15.55;73.47;100619.00;108050;1276;73777;-88
2022/06/30 01:16:40;;;;;;;3.60;1.80;;;;;;;15.51;73.58;100616.80;108205;1276;63115;-88
2022/06/30 01:19:07;;;;;;;7.50;2.20;;;;;;;15.47;73.61;100614.20;107716;1276;558172;-88
2022/06/30 01:21:35;;;;;;;4.20;2.10;;;;;;;15.45;73.80;100618.08;107978;1277;74191;-88
2022/06/30 01:24:07;;;;;;;4.20;1.60;;;;;;;15.41;73.88;100612.20;108017;1276;71127;-88
2022/06/30 01:26:35;;;;;;;3.00;1.70;;;;;;;15.39;74.11;100610.05;108047;1277;74177;-88
2022/06/30 01:29:06;;;;;;;5.00;2.30;;;;;;;15.37;74.23;100611.34;108056;1276;64352;-88
2022/06/30 01:31:38;;;;;;;2.80;1.80;;;;;;;15.34;74.35;100608.11;108035;1276;59656;-88
2022/06/30 01:34:05;;;;;;;5.50;2.10;;;;;;;15.29;74.58;100611.80;108117;1276;75476;-88
2022/06/30 01:36:32;;;;;;;2.70;2.00;;;;;;;15.28;74.62;100611.27;108117;1276;71716;-87
2022/06/30 01:39:00;;;;;;;2.60;1.40;;;;;;;15.25;74.80;100608.94;108029;1276;73360;-88
2022/06/30 01:41:29;;;;;;;3.80;2.00;;;;;;;15.21;74.79;100608.16;108065;1276;64237;-88
2022/06/30 01:44:00;;;;;;;3.10;1.90;;;;;;;15.18;75.06;100602.48;108047;1276;62300;-88
2022/06/30 01:46:30;;;;;;;3.50;1.70;;;;;;;15.19;75.27;100607.05;107974;1279;75348;-88
2022/06/30 01:48:58;;;;;;;3.70;2.00;;;;;;;15.17;75.61;100611.48;107964;1279;73216;-88
2022/06/30 01:51:26;;;;;;;8.20;2.20;;;;;;;15.15;75.40;100611.83;107938;1279;72517;-88
2022/06/30 01:53:56;;;;;;;4.70;2.30;;;;;;;15.12;75.49;100610.18;108074;1278;62947;-88
2022/06/30 01:56:27;;;;;;;2.90;1.80;;;;;;;15.13;75.78;100615.73;108015;1278;61617;-88
2022/06/30 02:06:56;;;;;;;6.40;2.10;;;;;;;15.05;75.86;100610.27;107851;1279;64239;-89
2022/06/30 02:09:24;;;;;;;13.20;2.20;;;;;;;15.03;76.07;100608.59;107848;1279;61315;-88
2022/06/30 02:14:34;;;;;;;11.50;2.50;;;;;;;15.01;76.08;100600.86;107813;1280;70800;-88
2022/06/30 02:19:34;;;;;;;3.60;2.50;;;;;;;14.99;76.04;100604.94;107951;1269;59765;-88
2022/06/30 02:22:02;;;;;;;4.00;2.00;;;;;;;14.97;76.11;100604.97;108024;1279;61407;-88
2022/06/30 02:27:08;;;;;;;3.00;2.00;;;;;;;14.92;76.23;100595.15;107515;1284;70486;-88
2022/06/30 02:29:51;;;;;;;3.80;2.40;;;;;;;14.90;76.32;100588.77;107654;1281;73429;-88
2022/06/30 02:34:52;;;;;;;4.00;2.20;;;;;;;14.88;76.48;100588.33;108149;1277;59071;-88
2022/06/30 02:39:54;;;;;;;3.10;2.10;;;;;;;14.86;76.73;100591.38;108059;1268;67875;-88
2022/06/30 02:42:25;;;;;;;4.70;2.50;;;;;;;14.83;76.74;100586.73;107994;1278;74087;-88
2022/06/30 02:44:53;;;;;;;3.40;2.00;;;;;;;14.84;76.74;100589.17;107938;1279;62888;-88
2022/06/30 03:04:09;;;;;;;7.00;2.70;;;;;;;14.81;77.07;100592.76;108118;1271;75737;-88
2022/06/30 03:06:43;;;;;;;6.30;2.40;;;;;;;14.80;77.05;100593.27;107991;1279;70794;-88
2022/06/30 03:09:10;;;;;;;4.50;2.70;;;;;;;14.78;76.96;100593.84;108083;1277;74595;-88
2022/06/30 03:14:08;;;;;;;4.10;2.30;;;;;;;14.75;76.93;100592.77;107942;1271;59155;-88
2022/06/30 03:16:36;;;;;;;5.60;2.80;;;;;;;14.75;77.15;100591.45;107933;1279;76283;-88
2022/06/30 03:19:03;;;;;;;5.40;2.50;;;;;;;14.74;77.34;100590.96;107968;1277;72316;-88
2022/06/30 03:21:30;;;;;;;4.80;3.00;;;;;;;14.74;77.34;100592.10;107979;1279;73368;-88
2022/06/30 03:23:58;;;;;;;7.20;2.80;;;;;;;14.74;77.49;100586.89;108007;1277;62239;-88
2022/06/30 03:26:25;;;;;;;4.30;2.50;;;;;;;14.75;77.47;100585.20;107962;1278;60645;-88
2022/06/30 03:28:52;;;;;;;2.90;2.30;;;;;;;14.75;77.58;100585.32;107936;1277;75156;-88
2022/06/30 03:31:20;;;;;;;3.40;2.50;;;;;;;14.76;77.59;100578.77;107964;1277;72961;-88
2022/06/30 03:33:47;;;;;;;4.70;2.10;;;;;;;14.77;77.48;100575.30;107743;1279;72710;-88
2022/06/30 03:36:14;;;;;;;3.50;2.50;;;;;;;14.78;77.51;100570.91;107822;1279;63610;-88
2022/06/30 03:38:42;;;;;;;3.30;2.60;;;;;;;14.79;77.33;100570.05;108015;1277;60604;-88
2022/06/30 03:41:10;;;;;;;4.60;2.10;;;;;;;14.80;77.39;100575.23;107901;1277;74947;-88
2022/06/30 03:43:38;;;;;;;4.20;2.80;;;;;;;14.81;77.63;100579.37;107740;1279;72517;-88
2022/06/30 03:46:06;;;;;;;4.60;2.20;;;;;;;14.81;77.44;100570.26;108009;1278;74389;-88
2022/06/30 03:48:35;;;;;;;4.50;2.60;;;;;;;14.83;77.31;100566.64;107955;1279;62055;-88
2022/06/30 03:51:05;;;;;;;3.30;2.20;;;;;;;14.84;77.39;100565.36;107972;1279;60805;-88
2022/06/30 03:53:33;;;;;;;2.50;2.30;;;;;;;14.86;77.41;100564.91;107722;1279;75997;-88
2022/06/30 03:56:05;;;;;;;6.30;2.80;;;;;;;14.89;77.46;100563.89;108006;1277;72508;-88
2022/06/30 03:58:34;;;;;;;4.20;2.20;;;;;;;14.91;77.59;100558.95;107825;1277;73697;-88
2022/06/30 04:01:06;;;;;;;4.00;2.60;;;;;;;14.93;77.37;100559.20;107971;1277;61423;-88
2022/06/30 04:03:33;;;;;;;4.10;2.40;;;;;;;14.95;77.45;100560.35;107836;1279;61995;-88
2022/06/30 04:06:01;;;;;;;4.90;2.30;;;;;;;14.98;77.31;100563.80;107996;1279;75954;-88
2022/06/30 04:08:32;;;;;;;3.50;2.00;;;;;;;14.99;77.42;100566.42;107957;1278;71036;-88
2022/06/30 04:13:50;;;;;;;4.00;2.10;;;;;;;15.07;77.32;100571.51;108125;1277;61543;-89
2022/06/30 04:16:26;;;;;;;3.90;2.00;;;;;;;15.12;77.43;100575.57;108086;1277;60646;-89
2022/06/30 04:18:54;;;;;;;8.20;2.30;;;;;;;15.16;77.40;100575.15;108091;1277;75583;-88
2022/06/30 04:21:22;;;;;;;2.90;2.60;;;;;;;15.21;77.17;100576.55;107973;1278;70850;-88
2022/06/30 04:23:50;;;;;;;5.80;2.50;;;;;;;15.27;77.26;100572.14;108029;1277;73079;-88
2022/06/30 04:26:18;;;;;;;3.70;2.00;;;;;;;15.32;77.05;100570.92;108023;1277;63400;-89
2022/06/30 04:28:45;;;;;;;4.30;2.50;;;;;;;15.40;76.79;100573.27;108213;1277;60325;-88
2022/06/30 04:33:58;;;;;;;3.00;2.00;;;;;;;15.58;76.57;100570.41;108137;1277;72178;-88
2022/06/30 04:36:26;;;;;;;2.80;1.90;;;;;;;15.65;76.20;100570.95;108280;1277;73375;-88
2022/06/30 04:38:53;;;;;;;3.90;2.00;;;;;;;15.73;76.04;100565.60;108455;1277;62231;-88
2022/06/30 04:41:26;;;;;;;3.70;1.80;;;;;;;15.81;76.11;100563.19;108537;1277;61559;-88
2022/06/30 04:43:54;;;;;;;6.00;1.80;;;;;;;15.87;75.74;100567.61;108556;1277;75102;-88
2022/06/30 04:46:22;;;;;;;2.60;1.80;;;;;;;15.93;75.81;100568.27;108397;1277;71498;-88
2022/06/30 04:48:50;;;;;;;3.50;1.90;;;;;;;16.02;75.81;100566.47;108459;1277;74378;-89
2022/06/30 04:51:18;;;;;;;2.60;1.90;;;;;;;16.13;75.74;100567.55;108513;1277;61971;-89
2022/06/30 04:53:45;;;;;;;2.10;1.60;;;;;;;16.23;75.48;100568.65;108055;1277;60785;-89
2022/06/30 04:56:12;;;;;;;6.20;2.20;;;;;;;16.33;75.49;100565.75;108180;1277;75231;-89
2022/06/30 04:58:39;;;;;;;3.10;2.10;;;;;;;16.45;75.33;100563.36;108142;1277;71796;-89
2022/06/30 05:01:06;;;;;;;4.60;2.90;;;;;;;16.59;75.00;100565.98;107946;1277;75089;-87
2022/06/30 05:03:34;;;;;;;3.90;2.40;;;;;;;16.82;74.34;100570.88;107959;1277;62441;-88
2022/06/30 05:06:03;;;;;;;4.50;2.50;;;;;;;17.07;73.51;100574.67;108064;1277;61849;-88
2022/06/30 05:08:31;;;;;;;3.70;2.50;;;;;;;17.29;72.70;100571.84;107839;1277;75059;-88
2022/06/30 05:10:58;;;;;;;5.80;2.50;;;;;;;17.51;71.98;100571.73;107811;1277;71098;-88
2022/06/30 05:13:26;;;;;;;6.00;2.60;;;;;;;17.73;71.28;100567.81;107872;1277;74577;-88
2022/06/30 05:15:54;;;;;;;4.40;2.30;;;;;;;17.95;70.61;100575.85;107909;1277;63204;-88
2022/06/30 05:18:21;;;;;;;5.00;2.80;;;;;;;18.14;69.98;100575.39;107904;1277;60579;-89
2022/06/30 05:20:48;;;;;;;4.50;2.80;;;;;;;18.30;69.38;100573.60;107855;1278;76481;-88
2022/06/30 05:23:15;;;;;;;6.90;2.60;;;;;;;18.45;68.81;100570.98;108040;1277;72523;-88
2022/06/30 05:28:27;;;;;;;6.20;2.60;;;;;;;18.73;67.91;100567.52;108000;1277;60905;-88
2022/06/30 05:30:57;;;;;;;5.70;2.50;;;;;;;18.83;67.75;100569.20;107878;1277;60346;-88
2022/06/30 05:33:25;;;;;;;7.90;2.70;;;;;;;18.97;67.80;100574.95;108017;1279;76508;-88
2022/06/30 05:35:53;;;;;;;6.10;2.80;;;;;;;19.14;67.80;100574.86;107967;1277;73109;-88
2022/06/30 05:38:20;;;;;;;6.30;2.80;;;;;;;19.29;67.48;100566.90;107869;1277;74180;-88
2022/06/30 05:40:47;;;;;;;6.00;2.50;;;;;;;19.43;67.16;100571.19;107804;1276;62930;-88
2022/06/30 05:43:16;;;;;;;7.20;2.90;;;;;;;19.55;67.02;100573.47;107999;1278;60471;-88
2022/06/30 05:45:46;;;;;;;5.30;2.80;;;;;;;19.70;67.09;100574.19;108010;1278;75968;-88
2022/06/30 05:48:13;;;;;;;5.20;2.80;;;;;;;19.88;66.81;100576.33;107918;1278;72806;-88
2022/06/30 05:50:41;;;;;;;5.00;2.80;;;;;;;20.01;66.13;100573.92;108085;1277;74238;-88
2022/06/30 05:53:07;;;;;;;3.80;2.50;;;;;;;20.13;66.21;100572.38;107968;1277;63130;-88
2022/06/30 05:55:35;;;;;;;6.50;3.10;;;;;;;20.20;65.82;100573.91;108259;1277;60786;-89
2022/06/30 05:58:06;;;;;;;6.80;2.60;;;;;;;20.32;65.94;100573.58;108258;1277;75455;-88
2022/06/30 06:00:34;;;;;;;3.60;2.80;;;;;;;20.45;65.71;100575.80;107687;1278;72431;-89
2022/06/30 06:03:01;;;;;;;4.10;3.00;;;;;;;20.55;65.41;100576.30;108039;1277;73616;-89
2022/06/30 06:05:28;;;;;;;4.30;2.80;;;;;;;20.67;65.16;100575.48;107921;1278;63281;-89
2022/06/30 06:07:56;;;;;;;5.60;3.30;;;;;;;20.80;64.98;100579.10;108028;1277;62030;-89
2022/06/30 06:10:23;;;;;;;5.60;3.10;;;;;;;20.96;64.94;100579.18;107908;1277;74867;-89
2022/06/30 06:12:50;;;;;;;4.40;3.00;;;;;;;21.08;64.31;100580.33;107988;1277;73125;-89
2022/06/30 06:15:17;;;;;;;5.90;3.30;;;;;;;21.15;63.88;100577.57;107997;1277;71025;-89
2022/06/30 06:17:47;;;;;;;5.00;3.20;;;;;;;21.27;64.05;100578.86;107951;1277;63513;-89
2022/06/30 06:20:17;;;;;;;3.70;2.80;;;;;;;21.38;63.64;100574.82;107697;1279;61623;-89
2022/06/30 06:22:44;;;;;;;4.90;3.00;;;;;;;21.44;63.29;100571.94;107522;1278;76186;-88
2022/06/30 06:25:12;;;;;;;4.60;3.20;;;;;;;21.60;63.55;100571.07;108048;1277;72920;-88
2022/06/30 06:27:40;;;;;;;3.70;3.10;;;;;;;21.78;63.05;100570.04;107531;1279;73235;-89
2022/06/30 06:30:08;;;;;;;5.40;3.10;;;;;;;21.96;62.77;100572.79;107911;1278;63579;-89
2022/06/30 06:32:36;;;;;;;5.60;3.60;;;;;;;22.09;62.13;100572.20;107851;1279;60905;-89
2022/06/30 06:35:06;;;;;;;5.40;3.20;;;;;;;22.17;61.77;100569.81;107680;1278;74957;-88
2022/06/30 06:37:37;;;;;;;7.60;3.90;;;;;;;22.24;61.51;100566.23;107904;1278;73218;-89
2022/06/30 06:40:05;;;;;;;7.60;4.10;;;;;;;22.37;61.57;100566.36;107952;1277;73986;-89
2022/06/30 06:42:33;;;;;;;6.10;3.80;;;;;;;22.51;61.17;100565.06;107972;1277;62230;-89
2022/06/30 06:45:08;;;;;;;4.10;3.50;;;;;;;22.64;60.98;100561.33;108005;1277;60875;-88
2022/06/30 06:47:35;;;;;;;5.20;3.80;;;;;;;22.75;60.56;100560.34;107902;1278;75956;-89
2022/06/30 06:50:02;;;;;;;5.40;3.70;;;;;;;22.86;60.22;100557.48;107916;1278;71375;-89
2022/06/30 06:52:29;;;;;;;6.60;3.50;;;;;;;22.96;59.84;100556.48;107982;1277;72875;-89
2022/06/30 06:54:57;;;;;;;5.70;3.70;;;;;;;23.03;59.44;100555.40;108017;1277;60582;-89
2022/06/30 06:57:24;;;;;;;5.40;3.70;;;;;;;22.98;59.39;100555.41;108016;1277;60657;-89
2022/06/30 06:59:51;;;;;;;4.90;3.70;;;;;;;23.04;59.45;100553.95;108006;1278;74867;-89
2022/06/30 07:02:18;;;;;;;7.00;3.80;;;;;;;23.10;59.22;100546.64;107974;1278;72171;-89
2022/06/30 07:04:46;;;;;;;6.40;3.50;;;;;;;23.16;59.26;100546.61;107809;1278;74433;-89
2022/06/30 07:07:13;;;;;;;4.30;3.80;;;;;;;23.27;59.42;100546.19;107916;1279;59613;-89
2022/06/30 07:09:40;;;;;;;5.30;3.70;;;;;;;23.41;58.88;100544.02;107767;1277;60375;-88
2022/06/30 07:12:08;;;;;;;6.10;4.50;;;;;;;23.50;58.62;100540.64;108034;1277;75942;-90
2022/06/30 07:14:35;;;;;;;6.20;4.50;;;;;;;23.67;58.77;100540.66;107855;1278;72195;-89
2022/06/30 07:17:02;;;;;;;5.80;3.90;;;;;;;23.85;58.44;100539.65;107996;1277;72388;-89
2022/06/30 07:19:30;;;;;;;7.20;4.40;;;;;;;24.04;57.96;100541.10;107902;1278;60488;-89
2022/06/30 07:21:56;;;;;;;5.20;3.90;;;;;;;24.17;57.38;100537.50;107912;1277;61679;-89
2022/06/30 07:24:24;;;;;;;7.20;4.20;;;;;;;24.26;57.39;100534.45;107993;1277;74966;-89
2022/06/30 07:26:51;;;;;;;5.40;4.40;;;;;;;24.40;57.52;100537.00;107925;1277;71293;-89
2022/06/30 07:29:17;;;;;;;5.80;4.50;;;;;;;24.49;56.75;100535.73;107897;1278;73724;-89
2022/06/30 07:31:45;;;;;;;4.70;4.20;;;;;;;24.56;56.72;100539.38;107893;1278;61941;-90
2022/06/30 07:34:13;;;;;;;5.80;4.30;;;;;;;24.61;56.66;100537.05;107788;1277;60224;-90
2022/06/30 07:36:41;;;;;;;6.70;4.50;;;;;;;24.69;56.86;100529.91;107896;1277;76232;-89
2022/06/30 07:39:08;;;;;;;5.90;4.60;;;;;;;24.79;56.63;100526.11;107997;1277;72642;-90
2022/06/30 07:41:35;;;;;;;5.90;4.50;;;;;;;24.86;56.55;100526.05;107912;1279;73945;-89
2022/06/30 07:44:03;;;;;;;5.40;4.30;;;;;;;24.93;56.44;100523.52;107881;1278;60727;-89
2022/06/30 07:46:29;;;;;;;6.00;4.60;;;;;;;25.04;56.52;100521.87;107825;1278;59253;-90
2022/06/30 07:49:01;;;;;;;6.10;4.60;;;;;;;25.17;56.22;100516.46;107935;1278;75013;-89
2022/06/30 07:51:28;;;;;;;8.00;6.20;;;;;;;25.22;55.57;100514.41;107901;1279;72508;-90
2022/06/30 07:53:56;;;;;;;8.10;5.00;;;;;;;25.19;55.74;100517.98;107857;1279;72894;-88
2022/06/30 07:56:23;;;;;;;8.10;4.40;;;;;;;25.27;56.04;100516.55;107830;1278;60454;-89
2022/06/30 07:58:51;;;;;;;9.30;4.80;;;;;;;25.31;55.89;100512.64;108076;1277;60934;-89
2022/06/30 08:01:19;;;;;;;6.10;4.90;;;;;;;25.34;56.14;100508.39;107763;1279;75722;-88
2022/06/30 08:03:47;;;;;;;5.30;4.60;;;;;;;25.41;56.03;100509.92;108053;1277;71486;-89
2022/06/30 08:06:14;;;;;;;7.90;6.10;;;;;;;25.49;55.69;100511.80;107893;1278;74283;-89
2022/06/30 08:08:42;;;;;;;7.30;5.00;;;;;;;25.55;55.88;100505.40;107841;1279;60464;-89
2022/06/30 08:11:09;;;;;;;9.60;5.40;;;;;;;25.43;55.89;100499.17;107982;1279;61164;-89
2022/06/30 08:13:37;;;;;;;7.20;5.40;;;;;;;25.35;56.68;100495.57;108012;1277;76689;-89
2022/06/30 08:16:07;;;;;;;6.60;5.80;;;;;;;25.38;56.82;100490.16;107984;1277;72786;-89
2022/06/30 08:18:34;;;;;;;7.60;5.90;;;;;;;25.50;56.51;100488.65;107962;1277;72914;-89
2022/06/30 08:21:06;;;;;;;8.20;6.80;;;;;;;25.63;56.47;100491.23;107942;1277;61647;-89
2022/06/30 08:23:34;;;;;;;6.90;6.20;;;;;;;25.72;56.36;100489.13;107981;1278;59744;-88
2022/06/30 08:26:05;;;;;;;7.90;5.90;;;;;;;25.75;55.66;100487.91;107913;1277;75327;-89
2022/06/30 08:28:33;;;;;;;7.80;5.50;;;;;;;25.81;55.85;100488.53;107945;1277;72574;-89
2022/06/30 08:31:01;;;;;;;6.20;4.80;;;;;;;25.93;55.83;100491.67;107940;1277;75239;-88
2022/06/30 08:33:34;;;;;;;7.10;5.10;;;;;;;25.95;55.39;100489.87;107996;1279;60596;-89
2022/06/30 08:36:06;;;;;;;6.20;5.60;;;;;;;26.03;55.50;100489.54;108064;1277;59994;-90
2022/06/30 08:38:33;;;;;;;6.40;5.40;;;;;;;26.19;55.28;100488.81;108007;1277;74943;-89
2022/06/30 08:43:45;;;;;;;7.40;5.60;;;;;;;26.43;54.64;100496.77;108014;1278;73427;-89
2022/06/30 08:46:15;;;;;;;5.70;4.70;;;;;;;26.58;54.17;100497.79;107964;1279;60227;-90
2022/06/30 08:48:42;;;;;;;7.30;5.10;;;;;;;26.64;53.67;100495.58;108006;1277;61917;-90
2022/06/30 08:51:13;;;;;;;6.10;5.10;;;;;;;26.76;53.74;100492.34;107919;1278;76171;-90
2022/06/30 08:53:45;;;;;;;5.60;4.40;;;;;;;26.87;52.98;100487.71;108038;1278;72518;-90
2022/06/30 08:56:13;;;;;;;5.00;4.50;;;;;;;26.89;52.75;100488.84;107897;1279;74023;-90
2022/06/30 08:58:42;;;;;;;6.90;5.40;;;;;;;26.86;51.97;100488.20;107890;1278;63943;-90
2022/06/30 09:01:13;;;;;;;6.10;4.50;;;;;;;26.86;52.53;100481.58;107878;1279;60703;-90
2022/06/30 09:03:41;;;;;;;7.60;4.90;;;;;;;26.88;52.84;100478.77;108071;1278;76734;-90
2022/06/30 09:06:08;;;;;;;6.10;4.60;;;;;;;27.03;53.22;100483.23;108040;1279;73132;-90
2022/06/30 09:08:43;;;;;;;5.30;4.70;;;;;;;27.21;52.60;100482.80;107856;1277;73918;-90
2022/06/30 09:11:10;;;;;;;5.90;5.30;;;;;;;27.28;52.87;100478.27;107832;1279;61178;-90
2022/06/30 09:13:49;;;;;;;6.10;5.20;;;;;;;27.41;52.26;100472.33;107878;1279;62361;-90
2022/06/30 09:16:20;;;;;;;5.30;4.80;;;;;;;27.55;52.08;100467.70;108026;1278;75056;-90
2022/06/30 09:18:47;;;;;;;5.10;4.40;;;;;;;27.71;51.79;100468.83;107693;1270;71797;-89
2022/06/30 09:21:18;;;;;;;6.40;4.80;;;;;;;27.63;51.20;100472.06;107953;1272;76411;-90
2022/06/30 09:23:47;;;;;;;5.60;4.70;;;;;;;27.71;51.73;100467.27;107781;1269;60515;-90
2022/06/30 09:26:22;;;;;;;5.70;4.70;;;;;;;27.81;51.37;100468.98;107991;1279;60690;-90
2022/06/30 09:28:54;;;;;;;5.20;4.50;;;;;;;27.95;51.78;100473.67;107937;1278;75478;-90
2022/06/30 09:31:45;;;;;;;6.20;4.80;;;;;;;28.14;50.73;100469.58;107746;1279;71527;-89
2022/06/30 09:34:18;;;;;;;5.00;4.50;;;;;;;28.26;49.90;100463.73;107784;1279;71459;-90
2022/06/30 09:36:50;;;;;;;5.70;4.50;;;;;;;28.43;50.05;100461.64;107824;1279;60672;-90
2022/06/30 09:39:21;;;;;;;6.00;4.40;;;;;;;28.60;49.32;100463.81;107983;1279;59988;-90
2022/06/30 09:41:49;;;;;;;5.20;4.10;;;;;;;28.81;49.22;100464.23;107619;1279;74758;-90
2022/06/30 09:44:16;;;;;;;6.10;3.90;;;;;;;28.97;48.08;100464.18;107726;1278;71519;-90
2022/06/30 09:46:57;;;;;;;4.60;4.10;;;;;;;29.05;47.73;100462.61;107926;1279;73938;-91
2022/06/30 09:49:36;;;;;;;6.30;4.40;;;;;;;29.26;47.17;100463.46;107849;1279;61159;-90
2022/06/30 09:52:18;;;;;;;5.10;3.90;;;;;;;29.36;47.41;100454.81;107797;1279;60695;-90
2022/06/30 09:54:54;;;;;;;5.20;4.10;;;;;;;29.42;47.76;100455.61;107693;1279;74957;-89
2022/06/30 09:57:24;;;;;;;4.70;4.20;;;;;;;29.46;47.30;100457.77;107915;1279;71589;-89
2022/06/30 10:00:09;;;;;;;6.40;4.40;;;;;;;29.59;47.41;100456.66;107742;1279;72938;-90
2022/06/30 10:02:41;;;;;;;6.70;4.00;;;;;;;29.86;46.98;100462.81;107638;1279;62050;-89
2022/06/30 10:05:10;;;;;;;5.60;4.20;;;;;;;29.91;45.67;100461.45;107791;1279;61957;-89
2022/06/30 10:07:38;;;;;;;8.20;4.60;;;;;;;29.94;45.53;100456.34;107596;1279;73673;-89
2022/06/30 10:10:08;;;;;;;4.60;4.20;;;;;;;29.94;45.59;100452.84;107909;1278;72010;-90
2022/06/30 10:12:36;;;;;;;4.70;4.00;;;;;;;30.02;45.26;100455.38;107880;1279;74331;-90
2022/06/30 10:15:04;;;;;;;5.80;4.60;;;;;;;30.03;45.54;100458.08;107968;1279;59575;-89
2022/06/30 10:17:35;;;;;;;10.50;4.10;;;;;;;30.01;45.22;100458.26;108058;1279;61629;-89
2022/06/30 10:20:03;;;;;;;6.00;4.30;;;;;;;29.99;45.53;100457.61;108030;1279;74963;-89
2022/06/30 10:22:32;;;;;;;5.40;3.90;;;;;;;29.84;45.13;100458.02;108064;1279;71456;-90
2022/06/30 10:24:59;;;;;;;4.20;3.80;;;;;;;29.59;45.97;100459.48;108052;1279;74346;-90
2022/06/30 10:27:28;;;;;;;6.30;4.00;;;;;;;29.47;46.62;100447.67;107895;1279;60653;-90
2022/06/30 10:29:59;;;;;;;5.70;3.70;;;;;;;29.45;47.02;100449.42;108036;1279;60763;-89
2022/06/30 10:32:52;;;;;;;5.30;4.30;;;;;;;29.43;46.14;100451.77;107994;1279;75962;-89
2022/06/30 10:35:28;;;;;;;4.80;4.00;;;;;;;29.54;46.60;100451.24;107902;1279;71575;-90
2022/06/30 10:38:01;;;;;;;6.70;4.30;;;;;;;29.64;46.36;100445.38;107993;1279;73981;-89
2022/06/30 10:40:43;;;;;;;4.80;3.60;;;;;;;29.56;45.78;100438.46;108060;1279;61433;-90
2022/06/30 10:43:13;;;;;;;5.80;4.70;;;;;;;29.40;46.48;100437.85;108047;1279;60637;-89
2022/06/30 10:46:06;;;;;;;5.30;4.10;;;;;;;29.41;46.71;100432.30;108103;1279;74448;-89
2022/06/30 10:49:09;;;;;;;6.20;4.40;;;;;;;29.44;46.21;100427.98;107908;1279;71426;-89
2022/06/30 10:51:38;;;;;;;5.60;4.80;;;;;;;29.54;46.06;100430.54;107775;1281;74542;-90
2022/06/30 10:54:06;;;;;;;4.50;3.80;;;;;;;29.72;46.37;100428.46;107927;1279;61418;-89
2022/06/30 10:56:55;;;;;;;7.00;4.70;;;;;;;29.92;45.70;100428.80;108020;1276;60410;-89
2022/06/30 10:59:37;;;;;;;5.90;4.60;;;;;;;30.17;44.88;100427.22;108072;1279;75960;-89
2022/06/30 11:02:10;;;;;;;5.90;4.10;;;;;;;30.28;43.60;100430.73;108022;1279;72586;-89
2022/06/30 11:04:51;;;;;;;9.20;4.40;;;;;;;30.26;44.55;100425.94;108078;1279;74021;-89
2022/06/30 11:07:20;;;;;;;5.80;4.30;;;;;;;30.43;45.10;100423.15;107870;1279;60702;-89
2022/06/30 11:09:47;;;;;;;4.80;4.20;;;;;;;30.51;44.04;100423.65;108055;1279;59598;-89
2022/06/30 11:12:41;;;;;;;5.90;5.00;;;;;;;30.50;44.29;100418.48;108023;1279;74987;-89
2022/06/30 11:15:10;;;;;;;5.40;4.00;;;;;;;30.43;44.51;100421.25;108113;1279;71384;-89
2022/06/30 11:17:39;;;;;;;7.30;4.60;;;;;;;30.23;44.37;100421.16;108105;1279;73404;-89
2022/06/30 11:20:05;;;;;;;7.90;4.80;;;;;;;30.18;44.38;100416.20;108030;1279;60067;-90
2022/06/30 11:22:34;;;;;;;6.30;4.80;;;;;;;30.40;44.84;100411.90;108110;1279;59585;-90
2022/06/30 11:27:17;;;;;;;6.20;4.20;;;;;;;30.72;44.73;100409.50;107909;1279;75002;-89
2022/06/30 11:28:03;;;;;;;5.70;4.50;;;;;;;30.94;43.34;100411.52;108223;1279;71520;-90
2022/06/30 11:30:32;;;;;;;5.60;3.80;;;;;;;31.06;42.21;100409.51;107802;1279;74500;-90
2022/06/30 11:33:00;;;;;;;5.30;4.50;;;;;;;31.18;41.80;100408.89;108018;1279;61430;-90
2022/06/30 11:35:28;;;;;;;6.60;5.10;;;;;;;31.32;42.08;100407.48;107987;1279;60451;-90
2022/06/30 11:37:56;;;;;;;5.20;4.00;;;;;;;31.41;40.99;100401.33;108083;1279;75953;-90
2022/06/30 11:40:23;;;;;;;7.40;4.40;;;;;;;31.21;41.07;100399.35;108088;1279;71286;-90
2022/06/30 11:42:53;;;;;;;6.20;4.60;;;;;;;31.03;41.84;100397.11;107898;1279;73752;-90
2022/06/30 11:45:23;;;;;;;5.30;4.10;;;;;;;30.97;41.87;100396.96;108046;1279;60683;-90
2022/06/30 11:48:00;;;;;;;7.10;5.10;;;;;;;31.06;41.93;100391.89;108056;1279;59280;-90
2022/06/30 11:50:27;;;;;;;8.00;4.60;;;;;;;31.08;42.64;100386.05;107947;1279;76294;-90
2022/06/30 11:52:57;;;;;;;6.90;5.10;;;;;;;31.34;42.52;100384.72;108057;1279;72448;-90
2022/06/30 11:55:26;;;;;;;6.70;4.70;;;;;;;31.63;41.94;100386.66;108019;1279;73185;-90
2022/06/30 11:57:54;;;;;;;5.90;4.90;;;;;;;31.88;41.67;100383.75;108044;1279;60835;-90
2022/06/30 12:00:24;;;;;;;7.90;5.40;;;;;;;32.11;40.27;100380.04;107555;1281;60485;-90
2022/06/30 12:02:52;;;;;;;6.80;4.70;;;;;;;32.27;39.41;100379.04;107946;1279;73184;-90
2022/06/30 12:05:21;;;;;;;6.60;4.70;;;;;;;32.41;39.31;100377.83;108011;1279;71498;-90
2022/06/30 12:07:48;;;;;;;7.00;4.50;;;;;;;32.60;39.81;100378.14;107857;1279;72949;-89
2022/06/30 12:10:17;;;;;;;7.00;5.20;;;;;;;32.73;37.81;100371.92;107892;1279;60947;-89
2022/06/30 12:12:45;;;;;;;5.80;4.30;;;;;;;32.97;38.08;100370.77;107927;1279;60660;-90
2022/06/30 12:15:15;;;;;;;7.20;4.50;;;;;;;33.32;37.22;100364.89;107844;1281;75947;-90
2022/06/30 12:17:50;;;;;;;7.20;4.50;;;;;;;33.50;36.90;100366.19;107955;1279;72461;-90
2022/06/30 12:20:16;;;;;;;5.20;4.40;;;;;;;33.66;36.34;100361.04;107955;1279;75624;-90
2022/06/30 12:22:48;;;;;;;5.20;4.20;;;;;;;33.85;35.13;100360.27;108043;1277;60423;-90